Nearby METAR Reports

 

KSJC - San Jose, California, USA
Distance from station: NE 14km
Updated: 24/05/2019 23:53
Mostly cloudy
Mostly cloudy
 Wind from NW
Wind: NW 7 km/h
Temperature: 13°C
Dew Point: 12°C
Humidity: 94%
Barometer: 1013.2 hPa
Clouds: Mostly cloudy
Visibility: 16 km
Cloud details: Few Clouds 30 m
Mostly cloudy 518 m
2019/05/25 06:53 KSJC 250653Z 32004KT 10SM FEW001 BKN017 13/12 A2992 RMK AO2 SLP132 LAST T01280122
KNUQ - Moffett Nas/Mtn, California, USA
Distance from station: N 14km
Updated: 24/05/2019 23:56
Overcast
Overcast
 Wind from N
Wind: N 7 km/h
Temperature: 14°C
Dew Point: 12°C
Humidity: 88%
Barometer: 1013.5 hPa
Clouds: Overcast
Visibility: 16 km
Cloud details: Overcast 366 m
2019/05/25 06:56 KNUQ 250656Z 36004KT 10SM OVC012 14/12 A2993 RMK AO2 SLP137 T01440117
 
KPAO - Palo Alto, California, USA
Distance from station: NNW 23km
Updated: 24/05/2019 20:47
NOT Current
Partly cloudy
Partly cloudy
 Wind from SSW
Wind: SSW 9 km/h
Temperature: 14°C
Dew Point: 11°C
Humidity: 82%
Barometer: 1013.9 hPa
Clouds: Partly cloudy
Visibility: 16 km
Cloud details: Few Clouds 610 m
Partly cloudy 3658 m
2019/05/25 03:47 KPAO 250347Z 20005KT 10SM FEW020 SCT120 14/11 A2994 RMK LAST
KRHV - San Jose/Reid, California, USA
Distance from station: ENE 19km
Updated: 24/05/2019 21:47
NOT Current
Partly cloudy
Partly cloudy
 Wind from calm
Wind: Calm
Temperature: 15°C
Dew Point: 11°C
Humidity: 77%
Barometer: 1014.6 hPa
Clouds: Partly cloudy
Visibility: 16 km
Cloud details: Partly cloudy 1524 m
2019/05/25 04:47 KRHV 250447Z 00000KT 10SM SCT050 15/11 A2996 RMK LAST
 
KOAK - Oakland, California, USA
Distance from station: NNW 50km
Updated: 25/05/2019 00:24
Overcast
Overcast
 Wind from W
Wind: W 26 km/h
Temperature: 14°C
Dew Point: 10°C
Humidity: 77%
Barometer: 1013.5 hPa
Clouds: Overcast
Visibility: 16 km
Cloud details: Overcast 366 m
2019/05/25 07:24 KOAK 250724Z 26014KT 10SM OVC012 14/10 A2993 RMK AO2 T01390100
KSQL - San Carlos Airpo, California, USA
Distance from station: NW 34km
Updated: 24/05/2019 20:47
NOT Current
Few Clouds
Few Clouds
 Wind from WSW
Wind: WSW 13 km/h
Temperature: 14°C
Dew Point: 10°C
Humidity: 77%
Barometer: 1013.9 hPa
Clouds: Few Clouds
Visibility: 16 km
Cloud details: Few Clouds 305 m
2019/05/25 03:47 KSQL 250347Z 25007KT 10SM FEW010 14/10 A2994 RMK LAST
 
KSFO - San Francisco, California, USA
Distance from station: NW 49km
Updated: 24/05/2019 23:56
Mostly cloudy
Mostly cloudy
 Wind from W
Wind: W 22 km/h
Temperature: 12°C
Dew Point: 9°C
Humidity: 82%
Barometer: 1013.5 hPa
Clouds: Mostly cloudy
Visibility: 13 km
Cloud details: Few Clouds 122 m
Mostly cloudy 305 m
2019/05/25 06:56 KSFO 250656Z 26012KT 8SM FEW004 BKN010 12/09 A2993 RMK AO2 SLP134 T01220089
KE16 - San Martin, California, USA
Distance from station: ESE 43km
Updated: 19/05/2019 10:45
NOT Current
Partly cloudy
Partly cloudy
 Wind from SE
Wind: SE 17 km/h
Temperature: 12°C
Dew Point: 10°C
Humidity: 88%
Barometer: 1010.2 hPa
Clouds: Partly cloudy
Visibility: 16 km
Cloud details: Few Clouds 1463 m
Partly cloudy 1676 m
2019/05/19 17:45 KE16 191745Z AUTO 13009KT 10SM FEW048 SCT055 12/10 A2983 RMK AO2
 
KWVI - Watsonville, California, USA
Distance from station: SSE 44km
Updated: 25/05/2019 00:03
Overcast
Overcast
 Wind from E
Wind: E 7 km/h
Temperature: 13°C
Dew Point: 11°C
Humidity: 88%
Barometer: 1013.9 hPa
Clouds: Overcast
Visibility: 16 km
Cloud details: Overcast 274 m
2019/05/25 07:03 KWVI 250703Z AUTO 08004KT 10SM OVC009 13/11 A2994 RMK AO2 T01280106
KHAF - Half Moon Bay, California, USA
Distance from station: WNW 50km
Updated: 25/05/2019 00:15
Overcast
Overcast
 Wind from calm
Wind: Calm
Temperature: 12°C
Dew Point: 10°C
Humidity: 88%
Barometer: 1014.2 hPa
Clouds: Overcast
Visibility: 13 km
Cloud details: Overcast 305 m
2019/05/25 07:15 KHAF 250715Z AUTO 00000KT 8SM OVC010 12/10 A2995 RMK AO2
 
KHWD - Hayward, California, USA
Distance from station: N 44km
Updated: 24/05/2019 23:54
Overcast
Overcast
 Wind from WNW
Wind: WNW 13 km/h
Temperature: 13°C
Dew Point: 11°C
Humidity: 88%
Barometer: 1013.2 hPa
Clouds: Overcast
Visibility: 16 km
Cloud details: Overcast 244 m
2019/05/25 06:54 KHWD 250654Z AUTO 29007KT 10SM OVC008 13/11 A2992 RMK AO2 SLP141 T01280106
KLVK - Livermore, California, USA
Distance from station: NNE 51km
Updated: 25/05/2019 00:09
Partly cloudy
Partly cloudy
 Wind from WNW
Wind: WNW 15 km/h
Temperature: 12°C
Dew Point: 11°C
Humidity: 94%
Barometer: 1012.2 hPa
Clouds: Partly cloudy
Visibility: 13 km
Cloud details: Partly cloudy 274 m
2019/05/25 07:09 KLVK 250709Z AUTO 29008KT 8SM SCT009 12/11 A2989 RMK AO2 T01170106